Time;durP1;ratioP1;P1;durP2;ratioP2;P2;SDS_P1;SDS_P2;PMS_P1;PMS_P2;Temp;Humidity;BMP_temperature;BMP_pressure;BME280_temperature;BME280_humidity;BME280_pressure;Samples;Min_cycle;Max_cycle;Signal;HPM_P1;HPM_P2
2023/12/21 00:00:40;;;;;;;1.63;1.42;;;7.70;99.90;;;;;;4968239;28;20108;-56
2023/12/21 00:03:06;;;;;;;3.40;1.30;;;7.70;99.90;;;;;;4968197;28;20490;-59
2023/12/21 00:05:31;;;;;;;3.67;1.45;;;7.70;99.90;;;;;;4950387;28;20042;-56
2023/12/21 00:07:57;;;;;;;2.63;1.20;;;7.80;99.90;;;;;;4968977;28;20410;-54
2023/12/21 00:10:22;;;;;;;1.38;1.27;;;7.80;99.90;;;;;;4968603;28;20165;-58
2023/12/21 00:12:48;;;;;;;3.78;1.17;;;7.80;99.90;;;;;;4967774;28;20104;-56
2023/12/21 00:15:13;;;;;;;1.23;1.13;;;7.90;99.90;;;;;;4967893;28;20428;-59
2023/12/21 00:17:39;;;;;;;2.70;1.15;;;7.90;99.90;;;;;;4950636;28;20551;-57
2023/12/21 00:20:05;;;;;;;2.00;1.77;;;7.90;99.90;;;;;;4967748;28;20037;-56
2023/12/21 00:22:31;;;;;;;7.13;1.10;;;7.80;99.90;;;;;;4967261;28;20115;-59
2023/12/21 00:24:56;;;;;;;1.35;1.33;;;7.80;99.90;;;;;;4967641;28;20106;-60
2023/12/21 00:27:28;;;;;;;;;;;7.80;99.90;;;;;;5107147;27;20794;-60
2023/12/21 00:29:54;;;;;;;;;;;7.70;99.90;;;;;;5088562;28;19957;-56
2023/12/21 00:32:19;;;;;;;4.50;1.10;;;7.70;99.90;;;;;;5106353;28;19907;-56
2023/12/21 00:34:49;;;;;;;1.25;0.85;;;7.70;99.90;;;;;;5106786;28;20031;-57
2023/12/21 00:37:15;;;;;;;4.78;0.82;;;7.70;99.90;;;;;;5105949;28;20121;-58
2023/12/21 00:39:40;;;;;;;2.97;1.00;;;7.60;99.90;;;;;;5105818;28;20058;-56
2023/12/21 00:42:06;;;;;;;1.50;1.40;;;7.50;99.90;;;;;;5087593;28;20046;-53
2023/12/21 00:44:31;;;;;;;1.73;1.20;;;7.60;99.90;;;;;;5106005;28;20031;-52
2023/12/21 00:46:57;;;;;;;3.28;1.02;;;7.60;99.90;;;;;;5106018;28;20766;-55
2023/12/21 00:49:22;;;;;;;0.80;0.80;;;7.60;99.90;;;;;;5105826;28;20118;-58
2023/12/21 00:51:48;;;;;;;3.33;0.77;;;7.60;99.90;;;;;;5105294;28;20038;-55
2023/12/21 00:54:13;;;;;;;0.90;0.90;;;7.60;99.90;;;;;;5105726;28;20229;-58
2023/12/21 00:56:39;;;;;;;1.02;0.60;;;7.60;99.90;;;;;;5087633;28;20106;-53
2023/12/21 00:59:04;;;;;;;0.93;0.90;;;7.70;99.90;;;;;;5105978;28;20459;-54
2023/12/21 01:01:30;;;;;;;1.20;0.80;;;7.70;99.90;;;;;;5104679;28;20049;-52
2023/12/21 01:03:55;;;;;;;0.82;0.82;;;7.70;99.90;;;;;;5087298;28;20096;-55
2023/12/21 01:06:21;;;;;;;0.60;0.60;;;7.70;99.90;;;;;;5080233;28;20071;-51
2023/12/21 01:08:46;;;;;;;0.50;0.50;;;7.80;99.90;;;;;;5077256;28;20075;-54
2023/12/21 01:11:13;;;;;;;0.70;0.70;;;7.80;99.90;;;;;;5084888;28;20025;-56
2023/12/21 01:13:38;;;;;;;1.45;0.60;;;7.80;99.90;;;;;;5101814;28;20418;-55
2023/12/21 01:16:04;;;;;;;0.52;0.52;;;7.80;99.90;;;;;;5105492;28;20032;-56
2023/12/21 01:18:30;;;;;;;4.88;0.70;;;7.80;99.90;;;;;;5105341;28;20047;-56
2023/12/21 01:20:55;;;;;;;1.00;0.50;;;7.80;99.90;;;;;;5104933;28;20036;-51
2023/12/21 01:23:21;;;;;;;0.73;0.73;;;7.80;99.90;;;;;;5105278;28;20027;-57
2023/12/21 01:25:46;;;;;;;1.85;0.57;;;7.80;99.90;;;;;;5088946;28;20387;-50
2023/12/21 01:28:12;;;;;;;0.50;0.50;;;7.80;99.90;;;;;;5083069;23;20135;-55
2023/12/21 01:30:38;;;;;;;0.63;0.63;;;7.80;99.90;;;;;;5065164;28;20074;-53
2023/12/21 01:33:03;;;;;;;1.02;1.02;;;7.80;99.90;;;;;;5049380;28;20110;-55
2023/12/21 01:35:29;;;;;;;0.35;0.35;;;7.80;99.90;;;;;;5048112;28;20114;-52
2023/12/21 01:37:55;;;;;;;0.80;0.50;;;7.90;99.90;;;;;;5039644;28;20395;-56
2023/12/21 01:40:20;;;;;;;0.32;0.32;;;7.80;99.90;;;;;;5034277;28;20025;-51
2023/12/21 01:42:46;;;;;;;0.52;0.52;;;7.90;99.90;;;;;;5032851;28;20029;-56
2023/12/21 01:45:12;;;;;;;0.40;0.40;;;7.90;99.90;;;;;;5034214;28;20030;-55
2023/12/21 01:47:37;;;;;;;0.50;0.50;;;7.90;99.90;;;;;;5034684;28;20049;-55
2023/12/21 01:50:04;;;;;;;1.17;0.40;;;7.80;99.90;;;;;;5034516;28;20424;-53
2023/12/21 01:52:29;;;;;;;0.30;0.30;;;7.80;99.90;;;;;;5033948;28;20056;-54
2023/12/21 01:54:55;;;;;;;0.85;0.40;;;7.80;99.90;;;;;;5032998;28;20061;-55
2023/12/21 01:57:21;;;;;;;0.40;0.40;;;7.90;99.90;;;;;;5034107;28;20025;-55
2023/12/21 01:59:47;;;;;;;0.40;0.40;;;7.90;99.90;;;;;;5033818;28;20052;-55
2023/12/21 02:02:13;;;;;;;0.40;0.40;;;7.90;99.90;;;;;;5032459;28;20494;-54
2023/12/21 02:04:38;;;;;;;0.40;0.40;;;7.90;99.90;;;;;;5034415;28;20076;-59
2023/12/21 02:07:04;;;;;;;0.47;0.40;;;7.90;99.90;;;;;;5034149;28;20513;-55
2023/12/21 02:09:29;;;;;;;0.30;0.30;;;8.00;99.90;;;;;;5034070;28;20097;-53
2023/12/21 02:11:55;;;;;;;0.35;0.35;;;7.90;99.90;;;;;;5034335;28;20543;-55
2023/12/21 02:14:21;;;;;;;0.50;0.50;;;8.00;99.90;;;;;;5034501;28;20029;-57
2023/12/21 02:17:03;;;;;;;0.40;0.40;;;8.00;99.90;;;;;;5034264;28;20209;-53
2023/12/21 02:19:29;;;;;;;0.50;0.50;;;8.00;99.90;;;;;;5034049;28;20038;-51
2023/12/21 02:21:56;;;;;;;0.20;0.20;;;8.00;99.90;;;;;;5033455;28;20044;-55
2023/12/21 02:24:22;;;;;;;0.40;0.40;;;8.10;99.90;;;;;;5033599;28;20025;-51
2023/12/21 02:26:48;;;;;;;1.25;0.40;;;8.10;99.90;;;;;;5033332;28;20404;-52
2023/12/21 02:29:14;;;;;;;0.65;0.40;;;8.10;99.90;;;;;;5033896;28;20072;-57
2023/12/21 02:31:39;;;;;;;0.32;0.32;;;8.10;99.90;;;;;;5033681;28;20584;-58
2023/12/21 02:34:06;;;;;;;0.40;0.40;;;8.10;99.90;;;;;;5034017;28;20032;-57
2023/12/21 02:36:32;;;;;;;0.30;0.30;;;8.10;99.90;;;;;;5033230;28;20056;-56
2023/12/21 02:38:57;;;;;;;0.30;0.30;;;8.10;99.90;;;;;;5033413;28;20114;-55
2023/12/21 02:41:23;;;;;;;0.30;0.30;;;8.10;99.90;;;;;;5033503;28;20480;-58
2023/12/21 02:43:48;;;;;;;0.30;0.30;;;8.10;99.90;;;;;;5034551;28;20029;-57
2023/12/21 02:46:14;;;;;;;0.35;0.35;;;8.10;99.90;;;;;;5033174;28;20079;-57
2023/12/21 02:48:39;;;;;;;0.30;0.30;;;8.10;99.90;;;;;;5032481;28;20026;-53
2023/12/21 02:51:05;;;;;;;0.40;0.40;;;8.20;99.90;;;;;;5032583;28;20469;-52
2023/12/21 02:53:30;;;;;;;0.40;0.40;;;8.10;99.90;;;;;;5032935;28;20022;-58
2023/12/21 02:55:56;;;;;;;0.40;0.40;;;8.10;99.90;;;;;;5032859;28;20033;-54
2023/12/21 02:58:23;;;;;;;0.30;0.30;;;8.10;99.90;;;;;;5032934;28;20030;-54
2023/12/21 03:00:49;;;;;;;0.85;0.73;;;8.10;99.90;;;;;;5032574;28;20099;-55
2023/12/21 03:03:15;;;;;;;0.20;0.20;;;8.10;99.90;;;;;;5033159;28;20461;-53
2023/12/21 03:05:40;;;;;;;0.30;0.30;;;8.20;99.90;;;;;;5032737;28;20057;-56
2023/12/21 03:08:06;;;;;;;0.20;0.20;;;8.10;99.90;;;;;;5032661;28;20113;-56
2023/12/21 03:10:31;;;;;;;0.30;0.30;;;8.10;99.90;;;;;;5032378;28;20029;-57
2023/12/21 03:12:58;;;;;;;0.20;0.20;;;8.20;99.90;;;;;;5032507;28;20439;-53
2023/12/21 03:15:24;;;;;;;0.30;0.30;;;8.10;99.90;;;;;;5032451;28;20026;-53
2023/12/21 03:17:49;;;;;;;0.20;0.20;;;8.10;99.90;;;;;;5032374;28;20030;-56
2023/12/21 03:20:15;;;;;;;0.20;0.20;;;8.20;99.90;;;;;;5032326;28;20435;-53
2023/12/21 03:22:40;;;;;;;0.20;0.20;;;8.20;99.90;;;;;;5032122;28;20052;-52
2023/12/21 03:25:06;;;;;;;0.30;0.30;;;8.20;99.90;;;;;;5032199;28;20478;-53
2023/12/21 03:27:32;;;;;;;0.22;0.22;;;8.20;99.90;;;;;;5031892;28;20061;-55
2023/12/21 03:29:57;;;;;;;0.20;0.20;;;8.20;99.90;;;;;;5030940;28;20033;-53
2023/12/21 03:32:23;;;;;;;0.20;0.20;;;8.20;99.90;;;;;;5031798;28;20036;-53
2023/12/21 03:34:49;;;;;;;0.20;0.20;;;8.20;99.90;;;;;;5032160;28;20022;-57
2023/12/21 03:37:14;;;;;;;0.28;0.28;;;8.20;99.90;;;;;;5032178;28;20041;-52
2023/12/21 03:39:40;;;;;;;0.22;0.20;;;8.20;99.90;;;;;;5032011;28;20029;-52
2023/12/21 03:42:06;;;;;;;0.75;0.40;;;8.20;99.90;;;;;;5031945;28;20071;-52
2023/12/21 03:44:31;;;;;;;0.20;0.20;;;8.20;99.90;;;;;;5031859;28;20109;-54
2023/12/21 03:46:57;;;;;;;1.45;0.20;;;8.20;99.90;;;;;;5031643;28;20112;-57
2023/12/21 03:49:25;;;;;;;0.30;0.30;;;8.20;99.90;;;;;;5031846;28;20130;-53
2023/12/21 03:51:51;;;;;;;0.20;0.20;;;8.20;99.90;;;;;;5031770;28;20377;-58
2023/12/21 03:54:16;;;;;;;0.30;0.30;;;8.30;99.90;;;;;;5032343;28;20032;-54
2023/12/21 03:56:42;;;;;;;0.30;0.30;;;8.30;99.90;;;;;;5031892;28;20026;-55
2023/12/21 03:59:07;;;;;;;0.38;0.38;;;8.30;99.90;;;;;;5031901;28;20119;-56
2023/12/21 04:01:33;;;;;;;0.22;0.22;;;8.30;99.90;;;;;;5030097;28;20508;-53
2023/12/21 04:03:58;;;;;;;0.28;0.28;;;8.30;99.90;;;;;;5031903;28;20033;-53
2023/12/21 04:06:24;;;;;;;0.30;0.30;;;8.30;99.90;;;;;;5031800;28;20374;-54
2023/12/21 04:08:53;;;;;;;2.75;1.10;;;8.30;99.90;;;;;;5032562;28;20481;-54
2023/12/21 04:11:18;;;;;;;2.17;0.30;;;8.30;99.90;;;;;;5031875;28;20083;-57
2023/12/21 04:13:47;;;;;;;0.57;0.28;;;8.30;99.90;;;;;;5031784;28;20029;-55
2023/12/21 04:16:12;;;;;;;0.20;0.20;;;8.30;99.90;;;;;;5031930;28;20029;-56
2023/12/21 04:18:38;;;;;;;0.30;0.30;;;8.30;99.90;;;;;;5031948;28;20032;-51
2023/12/21 04:21:06;;;;;;;0.20;0.20;;;8.20;99.90;;;;;;5030210;28;20064;-54
2023/12/21 04:23:32;;;;;;;0.15;0.15;;;8.30;99.90;;;;;;5030237;28;20025;-55
2023/12/21 04:25:57;;;;;;;0.52;0.20;;;8.30;99.90;;;;;;5030186;28;20037;-53
2023/12/21 04:28:23;;;;;;;0.30;0.30;;;8.30;99.90;;;;;;5031201;28;20029;-57
2023/12/21 04:30:48;;;;;;;0.20;0.20;;;8.30;99.90;;;;;;5031206;28;20034;-57
2023/12/21 04:33:14;;;;;;;0.22;0.22;;;8.30;99.90;;;;;;5030239;28;20536;-59
2023/12/21 04:35:39;;;;;;;0.20;0.20;;;8.30;99.90;;;;;;5031568;28;20079;-55
2023/12/21 04:38:05;;;;;;;0.35;0.35;;;8.30;99.90;;;;;;5031572;28;20029;-55
2023/12/21 04:40:30;;;;;;;0.40;0.40;;;8.30;99.90;;;;;;5031288;28;20466;-54
2023/12/21 04:42:56;;;;;;;0.22;0.22;;;8.40;99.90;;;;;;5031638;28;20032;-56
2023/12/21 04:45:22;;;;;;;0.30;0.30;;;8.40;99.90;;;;;;5031352;28;20024;-54
2023/12/21 04:47:48;;;;;;;0.30;0.30;;;8.40;99.90;;;;;;5031592;28;20097;-52
2023/12/21 04:50:13;;;;;;;0.55;0.20;;;8.40;99.90;;;;;;5031656;28;20500;-55
2023/12/21 04:52:39;;;;;;;0.52;0.52;;;8.40;99.90;;;;;;5031242;28;20428;-54
2023/12/21 04:55:05;;;;;;;0.40;0.40;;;8.40;99.90;;;;;;5031313;28;20026;-55
2023/12/21 04:57:31;;;;;;;13.57;0.63;;;8.40;99.90;;;;;;5031321;28;20035;-58
2023/12/21 04:59:56;;;;;;;0.22;0.22;;;8.40;99.90;;;;;;5031326;28;20029;-52
2023/12/21 05:02:22;;;;;;;0.45;0.30;;;8.40;99.90;;;;;;5030952;28;20095;-53
2023/12/21 05:04:47;;;;;;;0.30;0.22;;;8.40;99.90;;;;;;5031101;28;20563;-54
2023/12/21 05:07:13;;;;;;;0.30;0.30;;;8.30;99.90;;;;;;5030964;28;20412;-57
2023/12/21 05:09:38;;;;;;;1.65;1.17;;;8.40;99.90;;;;;;5029811;28;20559;-53
2023/12/21 05:12:04;;;;;;;0.35;0.35;;;8.40;99.90;;;;;;5030956;28;20025;-56
2023/12/21 05:14:30;;;;;;;0.30;0.30;;;8.30;99.90;;;;;;5035110;28;20022;-54
2023/12/21 05:16:55;;;;;;;0.32;0.32;;;8.40;99.90;;;;;;5034763;28;20025;-58
2023/12/21 05:19:21;;;;;;;0.25;0.25;;;8.40;99.90;;;;;;5034494;28;20045;-53
2023/12/21 05:21:46;;;;;;;0.28;0.28;;;8.40;99.90;;;;;;5034434;28;20040;-56
2023/12/21 05:24:12;;;;;;;0.40;0.40;;;8.40;99.90;;;;;;5033317;28;20111;-52
2023/12/21 05:26:37;;;;;;;0.30;0.30;;;8.50;99.90;;;;;;5033739;28;20060;-52
2023/12/21 05:29:03;;;;;;;0.77;0.30;;;8.50;99.90;;;;;;5034568;28;20040;-55
2023/12/21 05:31:28;;;;;;;0.45;0.40;;;8.50;99.90;;;;;;5034222;28;20022;-56
2023/12/21 05:33:54;;;;;;;0.40;0.40;;;8.50;99.90;;;;;;5034359;28;20065;-57
2023/12/21 05:36:23;;;;;;;0.20;0.20;;;8.50;99.90;;;;;;5034393;28;20029;-53
2023/12/21 05:38:49;;;;;;;0.40;0.40;;;8.50;99.90;;;;;;5034793;28;20021;-53
2023/12/21 05:41:15;;;;;;;0.47;0.32;;;8.50;99.90;;;;;;5032758;28;20017;-52
2023/12/21 05:43:42;;;;;;;0.30;0.30;;;8.50;99.90;;;;;;5032965;28;20021;-53
2023/12/21 05:46:07;;;;;;;0.30;0.30;;;8.50;99.90;;;;;;5034120;28;20032;-54
2023/12/21 05:48:33;;;;;;;0.30;0.30;;;8.60;99.90;;;;;;5034104;28;20021;-54
2023/12/21 05:50:59;;;;;;;0.30;0.30;;;8.60;99.90;;;;;;5033901;28;20443;-58
2023/12/21 05:53:24;;;;;;;0.20;0.20;;;8.60;99.90;;;;;;5033867;28;20500;-56
2023/12/21 05:55:50;;;;;;;0.22;0.22;;;8.60;99.90;;;;;;5034451;28;20033;-54
2023/12/21 05:58:16;;;;;;;0.63;0.30;;;8.60;99.90;;;;;;5033877;28;20029;-55
2023/12/21 06:00:41;;;;;;;0.57;0.30;;;8.60;99.90;;;;;;5033516;28;20068;-56
2023/12/21 06:03:07;;;;;;;0.25;0.25;;;8.60;99.90;;;;;;5033715;28;20026;-56
2023/12/21 06:05:33;;;;;;;0.20;0.20;;;8.70;99.90;;;;;;5033847;28;20030;-57
2023/12/21 06:07:58;;;;;;;0.85;0.40;;;8.70;99.90;;;;;;5033925;28;20483;-52
2023/12/21 06:10:24;;;;;;;0.30;0.30;;;8.70;99.90;;;;;;5033869;28;20030;-56
2023/12/21 06:12:49;;;;;;;0.40;0.40;;;8.70;99.90;;;;;;5033589;28;20096;-55
2023/12/21 06:15:15;;;;;;;1.85;0.30;;;8.70;99.90;;;;;;5033726;28;20028;-53
2023/12/21 06:17:41;;;;;;;0.20;0.20;;;8.70;99.90;;;;;;5033571;28;20021;-57
2023/12/21 06:20:07;;;;;;;0.35;0.35;;;8.70;99.90;;;;;;5033678;28;20049;-57
2023/12/21 06:22:32;;;;;;;0.45;0.30;;;8.70;99.90;;;;;;5033367;28;20021;-57
2023/12/21 06:24:58;;;;;;;0.43;0.43;;;8.70;99.90;;;;;;5032045;28;20021;-57
2023/12/21 06:27:23;;;;;;;0.30;0.30;;;8.70;99.90;;;;;;5033011;28;20436;-53
2023/12/21 06:29:49;;;;;;;0.45;0.45;;;8.70;99.90;;;;;;5033803;28;20100;-55
2023/12/21 06:32:14;;;;;;;0.40;0.40;;;8.70;99.90;;;;;;5033241;28;20049;-54
2023/12/21 06:34:40;;;;;;;0.38;0.38;;;8.70;99.90;;;;;;5033457;28;20028;-57
2023/12/21 06:37:07;;;;;;;0.30;0.30;;;8.70;99.90;;;;;;5033043;28;20101;-54
2023/12/21 06:39:33;;;;;;;0.30;0.30;;;8.70;99.90;;;;;;5033507;28;20469;-56
2023/12/21 06:41:58;;;;;;;0.20;0.20;;;8.70;99.90;;;;;;5033124;28;20034;-56
2023/12/21 06:44:24;;;;;;;0.35;0.35;;;8.70;99.90;;;;;;5033490;28;20092;-56
2023/12/21 06:46:50;;;;;;;0.68;0.68;;;8.80;99.90;;;;;;5031694;28;20033;-55
2023/12/21 06:49:16;;;;;;;0.20;0.20;;;8.70;99.90;;;;;;5033231;28;20021;-55
2023/12/21 06:51:44;;;;;;;0.30;0.30;;;8.70;99.90;;;;;;5032801;28;20022;-57
2023/12/21 06:54:11;;;;;;;0.22;0.22;;;8.70;99.90;;;;;;5033747;28;20018;-57
2023/12/21 06:56:36;;;;;;;0.70;0.32;;;8.70;99.90;;;;;;5042665;28;20025;-57
2023/12/21 06:59:03;;;;;;;0.88;0.40;;;8.70;99.90;;;;;;5041754;28;20036;-54
2023/12/21 07:01:29;;;;;;;0.30;0.30;;;8.70;99.90;;;;;;5032274;28;20067;-53
2023/12/21 07:03:55;;;;;;;1.10;0.30;;;8.70;99.90;;;;;;5031705;28;20026;-52
2023/12/21 07:06:20;;;;;;;0.73;0.50;;;8.70;99.90;;;;;;5032675;28;20044;-55
2023/12/21 07:08:46;;;;;;;0.30;0.30;;;8.80;99.90;;;;;;5032636;28;20018;-56
2023/12/21 07:11:12;;;;;;;0.30;0.30;;;8.80;99.90;;;;;;5032565;28;20084;-57
2023/12/21 07:13:38;;;;;;;0.30;0.30;;;8.70;99.90;;;;;;5032889;28;20029;-57
2023/12/21 07:16:05;;;;;;;0.32;0.32;;;8.70;99.90;;;;;;5032560;28;20028;-53
2023/12/21 07:18:30;;;;;;;0.20;0.20;;;8.80;99.90;;;;;;5032711;28;20025;-56
2023/12/21 07:20:56;;;;;;;0.38;0.38;;;8.80;99.90;;;;;;5032417;28;20025;-57
2023/12/21 07:23:21;;;;;;;1.17;0.30;;;8.80;99.90;;;;;;5032758;28;20030;-54
2023/12/21 07:25:47;;;;;;;2.35;0.60;;;8.80;99.90;;;;;;5032615;28;20033;-55
2023/12/21 07:28:15;;;;;;;0.40;0.40;;;8.80;99.90;;;;;;5053979;23;20037;-42
2023/12/21 07:30:41;;;;;;;0.40;0.40;;;8.80;99.90;;;;;;5033626;28;20028;-44
2023/12/21 07:33:07;;;;;;;0.30;0.30;;;8.80;99.90;;;;;;5038189;28;20029;-45
2023/12/21 07:35:32;;;;;;;0.35;0.35;;;8.80;99.90;;;;;;5032021;28;20026;-43
2023/12/21 07:37:58;;;;;;;0.40;0.40;;;8.80;99.90;;;;;;5032483;28;20029;-44
2023/12/21 07:40:23;;;;;;;0.20;0.20;;;8.80;99.90;;;;;;5014677;28;20041;-43
2023/12/21 07:42:49;;;;;;;17.10;1.27;;;8.90;99.90;;;;;;5032135;28;20025;-42
2023/12/21 07:45:14;;;;;;;0.30;0.30;;;8.80;99.90;;;;;;5032182;28;20096;-43
2023/12/21 07:47:40;;;;;;;0.70;0.45;;;8.80;99.90;;;;;;5031799;28;20325;-45
2023/12/21 07:50:06;;;;;;;0.30;0.30;;;8.70;99.90;;;;;;5031899;28;20492;-43
2023/12/21 07:52:31;;;;;;;0.32;0.32;;;8.70;99.90;;;;;;5031724;28;20083;-44
2023/12/21 07:54:57;;;;;;;0.47;0.43;;;8.70;99.90;;;;;;5031858;28;20167;-43
2023/12/21 07:57:23;;;;;;;0.30;0.30;;;8.70;99.90;;;;;;5031775;28;20049;-44
2023/12/21 07:59:48;;;;;;;0.40;0.40;;;8.70;99.90;;;;;;5031744;28;20025;-45
2023/12/21 08:02:14;;;;;;;0.40;0.40;;;8.70;99.90;;;;;;5031674;28;20397;-45
2023/12/21 08:04:40;;;;;;;0.40;0.40;;;8.70;99.90;;;;;;5031785;28;20068;-47
2023/12/21 08:07:06;;;;;;;2.55;0.70;;;8.70;99.90;;;;;;5031776;28;20025;-45
2023/12/21 08:09:31;;;;;;;2.38;0.80;;;8.70;99.90;;;;;;5031865;28;20083;-45
2023/12/21 08:11:57;;;;;;;0.90;0.88;;;8.70;99.90;;;;;;5031484;28;20030;-45
2023/12/21 08:14:26;;;;;;;0.35;0.35;;;8.70;99.90;;;;;;5031829;28;20033;-46
2023/12/21 08:16:52;;;;;;;0.30;0.30;;;8.70;99.90;;;;;;5031706;28;20052;-44
2023/12/21 08:19:18;;;;;;;0.30;0.30;;;8.70;99.90;;;;;;5031689;28;20036;-47
2023/12/21 08:21:43;;;;;;;0.50;0.50;;;8.70;99.90;;;;;;5031619;28;20489;-45
2023/12/21 08:24:10;;;;;;;0.32;0.32;;;8.70;99.90;;;;;;5031647;28;20040;-45
2023/12/21 08:26:35;;;;;;;2.58;0.32;;;8.70;99.90;;;;;;5013995;28;20037;-47
2023/12/21 08:29:01;;;;;;;0.60;0.57;;;8.80;99.90;;;;;;5031271;28;20030;-47
2023/12/21 08:31:28;;;;;;;0.50;0.50;;;8.80;99.90;;;;;;5032019;28;20060;-47
2023/12/21 08:33:54;;;;;;;3.53;1.38;;;8.80;99.90;;;;;;5014517;28;20064;-42
2023/12/21 08:36:20;;;;;;;1.05;0.30;;;8.80;99.90;;;;;;5031454;28;20030;-48
2023/12/21 08:38:45;;;;;;;0.50;0.32;;;8.80;99.90;;;;;;5031332;28;20364;-47
2023/12/21 08:41:11;;;;;;;2.60;0.30;;;8.90;99.90;;;;;;5031277;28;20025;-48
2023/12/21 08:43:36;;;;;;;0.20;0.20;;;8.80;99.90;;;;;;5031402;28;20021;-48
2023/12/21 08:46:03;;;;;;;0.40;0.40;;;8.80;99.90;;;;;;5031393;28;20030;-46
2023/12/21 08:48:29;;;;;;;0.40;0.40;;;8.80;99.90;;;;;;5033908;28;20021;-48
2023/12/21 08:50:55;;;;;;;0.30;0.30;;;8.80;99.90;;;;;;5035268;28;20022;-49
2023/12/21 08:53:21;;;;;;;0.30;0.30;;;8.80;99.90;;;;;;5035366;28;20490;-45
2023/12/21 08:55:46;;;;;;;1.25;0.45;;;8.90;99.90;;;;;;5017283;28;20021;-47
2023/12/21 08:58:12;;;;;;;2.05;0.40;;;8.90;99.90;;;;;;5034978;28;20037;-47
2023/12/21 09:00:37;;;;;;;0.20;0.20;;;9.00;99.90;;;;;;5034814;28;20057;-46
2023/12/21 09:03:03;;;;;;;0.30;0.30;;;9.10;99.90;;;;;;5034683;28;20092;-47
2023/12/21 09:05:28;;;;;;;0.57;0.20;;;9.20;99.90;;;;;;5035252;28;20036;-45
2023/12/21 09:07:54;;;;;;;0.30;0.30;;;9.20;99.90;;;;;;5034850;28;20026;-43
2023/12/21 09:10:20;;;;;;;0.20;0.20;;;9.30;99.90;;;;;;5035181;28;20044;-45
2023/12/21 09:12:46;;;;;;;0.40;0.40;;;9.40;99.90;;;;;;5034377;28;20036;-46
2023/12/21 09:15:12;;;;;;;0.40;0.40;;;9.40;99.90;;;;;;5035038;28;20025;-50
2023/12/21 09:17:37;;;;;;;0.30;0.30;;;9.40;99.90;;;;;;5016823;28;20103;-46
2023/12/21 09:20:04;;;;;;;0.30;0.30;;;9.50;99.90;;;;;;5034764;28;20116;-44
2023/12/21 09:22:29;;;;;;;0.22;0.22;;;9.50;99.90;;;;;;5034363;28;20412;-46
2023/12/21 09:24:55;;;;;;;0.30;0.30;;;9.50;99.90;;;;;;5034609;28;20124;-45
2023/12/21 09:27:20;;;;;;;1.00;0.40;;;9.50;99.90;;;;;;5034321;28;20051;-48
2023/12/21 09:29:46;;;;;;;0.20;0.20;;;9.50;99.90;;;;;;5034614;28;20100;-45
2023/12/21 09:32:11;;;;;;;0.35;0.30;;;9.60;99.90;;;;;;5034224;28;20083;-45
2023/12/21 09:34:38;;;;;;;0.28;0.28;;;9.60;99.90;;;;;;5035587;28;20029;-45
2023/12/21 09:37:04;;;;;;;0.45;0.45;;;9.60;99.90;;;;;;5041363;28;20029;-43
2023/12/21 09:39:30;;;;;;;0.20;0.20;;;9.60;99.90;;;;;;5054223;28;20032;-48
2023/12/21 09:42:00;;;;;;;0.35;0.35;;;9.70;99.90;;;;;;5036729;28;20404;-46
2023/12/21 09:44:27;;;;;;;0.20;0.20;;;9.70;99.90;;;;;;5054436;28;20489;-41
2023/12/21 09:46:54;;;;;;;0.20;0.20;;;9.70;99.90;;;;;;5035954;28;20082;-42
2023/12/21 09:49:20;;;;;;;0.20;0.20;;;9.80;99.90;;;;;;5036514;28;20078;-45
2023/12/21 09:51:48;;;;;;;0.20;0.20;;;9.80;99.90;;;;;;5053609;28;20487;-49
2023/12/21 09:54:16;;;;;;;0.47;0.30;;;9.80;99.90;;;;;;5053867;28;20462;-41
2023/12/21 09:56:46;;;;;;;0.20;0.20;;;9.90;99.90;;;;;;5054754;28;20021;-41
2023/12/21 09:59:13;;;;;;;0.25;0.25;;;9.90;99.90;;;;;;5035961;28;20033;-41
2023/12/21 10:01:39;;;;;;;0.20;0.20;;;9.90;99.90;;;;;;5035420;28;20040;-40
2023/12/21 10:04:07;;;;;;;0.22;0.22;;;9.90;99.90;;;;;;5054359;28;20052;-43
2023/12/21 10:06:32;;;;;;;1.00;0.90;;;9.90;99.90;;;;;;5053387;28;20033;-45
2023/12/21 10:08:57;;;;;;;0.20;0.20;;;9.90;99.90;;;;;;5053594;28;20369;-47
2023/12/21 10:11:23;;;;;;;2.50;0.30;;;10.00;99.90;;;;;;5053318;28;20044;-42
2023/12/21 10:13:49;;;;;;;0.38;0.30;;;10.00;99.90;;;;;;5053615;28;20023;-42
2023/12/21 10:16:16;;;;;;;0.20;0.20;;;10.00;99.90;;;;;;5053495;28;20053;-45
2023/12/21 10:18:42;;;;;;;0.17;0.17;;;10.00;99.90;;;;;;5053521;28;20035;-43
2023/12/21 10:21:10;;;;;;;0.70;0.10;;;10.00;99.90;;;;;;5053219;28;20191;-41
2023/12/21 10:23:39;;;;;;;0.40;0.40;;;10.00;99.90;;;;;;5053411;28;20112;-42
2023/12/21 10:26:05;;;;;;;0.20;0.20;;;10.10;99.90;;;;;;5053356;28;20373;-46
2023/12/21 10:28:31;;;;;;;2.45;0.32;;;10.10;99.90;;;;;;5053096;28;20116;-42
2023/12/21 10:30:59;;;;;;;0.20;0.20;;;10.10;99.90;;;;;;5052911;28;20441;-45
2023/12/21 10:33:28;;;;;;;0.17;0.17;;;10.10;99.90;;;;;;5052847;28;20025;-42
2023/12/21 10:35:54;;;;;;;0.20;0.20;;;10.10;99.90;;;;;;5052898;28;20524;-38
2023/12/21 10:38:21;;;;;;;0.20;0.20;;;10.20;99.90;;;;;;5035192;28;20036;-45
2023/12/21 10:40:47;;;;;;;0.20;0.20;;;10.20;99.90;;;;;;5052653;28;20033;-48
2023/12/21 10:43:16;;;;;;;0.40;0.30;;;10.20;99.90;;;;;;5053403;28;20052;-42
2023/12/21 10:45:46;;;;;;;0.55;0.47;;;10.30;99.90;;;;;;5053636;28;20029;-41
2023/12/21 10:48:13;;;;;;;0.20;0.20;;;10.30;99.90;;;;;;5053648;28;20374;-42
2023/12/21 10:50:39;;;;;;;0.20;0.20;;;10.20;99.90;;;;;;5053613;28;20049;-44
2023/12/21 10:53:05;;;;;;;0.30;0.30;;;10.20;99.90;;;;;;5053848;28;20025;-41
2023/12/21 10:55:32;;;;;;;1.77;0.28;;;10.20;99.90;;;;;;5053596;28;20017;-40
2023/12/21 10:58:00;;;;;;;0.30;0.30;;;10.10;99.90;;;;;;5053607;28;20100;-42
2023/12/21 11:00:26;;;;;;;0.47;0.43;;;10.10;99.90;;;;;;5035462;28;20548;-41
2023/12/21 11:02:52;;;;;;;0.22;0.22;;;10.00;99.90;;;;;;5035092;28;20044;-47
2023/12/21 11:05:21;;;;;;;0.20;0.20;;;10.00;99.90;;;;;;5034694;28;20029;-43
2023/12/21 11:07:50;;;;;;;0.30;0.30;;;10.10;99.90;;;;;;5052675;28;20029;-42
2023/12/21 11:10:23;;;;;;;0.47;0.47;;;10.20;99.90;;;;;;5051862;28;20055;-46
2023/12/21 11:12:50;;;;;;;0.20;0.20;;;10.20;99.90;;;;;;5052585;28;20029;-43
2023/12/21 11:15:18;;;;;;;0.43;0.40;;;10.20;99.90;;;;;;5052516;28;20032;-42
2023/12/21 11:17:52;;;;;;;0.50;0.30;;;10.30;99.90;;;;;;5051547;28;20430;-43
2023/12/21 11:20:22;;;;;;;0.30;0.30;;;10.30;99.90;;;;;;5034263;28;20086;-44
2023/12/21 11:22:47;;;;;;;0.20;0.20;;;10.50;99.90;;;;;;5052328;28;20748;-43
2023/12/21 11:25:13;;;;;;;0.17;0.17;;;10.50;99.90;;;;;;5033781;28;20036;-42
2023/12/21 11:27:42;;;;;;;0.20;0.20;;;10.60;99.90;;;;;;5033712;28;20028;-45
2023/12/21 11:30:12;;;;;;;0.47;0.30;;;10.50;99.90;;;;;;5034176;28;20075;-45
2023/12/21 11:32:41;;;;;;;0.35;0.35;;;10.60;99.90;;;;;;5051790;28;20044;-46
2023/12/21 11:35:23;;;;;;;0.28;0.28;;;10.60;99.90;;;;;;5034248;28;20389;-43
2023/12/21 11:37:52;;;;;;;2.90;1.08;;;10.60;99.90;;;;;;5052151;28;20045;-49
2023/12/21 11:40:19;;;;;;;0.20;0.20;;;10.60;99.90;;;;;;5034232;28;20021;-45
2023/12/21 11:42:47;;;;;;;0.30;0.30;;;10.60;99.90;;;;;;5052201;28;20028;-41
2023/12/21 11:45:26;;;;;;;0.15;0.15;;;10.70;99.90;;;;;;5051845;28;20411;-46
2023/12/21 11:48:02;;;;;;;0.28;0.28;;;10.70;99.90;;;;;;5034107;28;20045;-45
2023/12/21 11:50:33;;;;;;;0.13;0.13;;;10.70;99.90;;;;;;5033821;28;20052;-45
2023/12/21 11:53:06;;;;;;;0.20;0.20;;;10.70;99.90;;;;;;5051711;28;20021;-44
2023/12/21 11:55:40;;;;;;;0.40;0.40;;;10.70;99.90;;;;;;5033987;28;20108;-41
2023/12/21 11:58:15;;;;;;;0.20;0.20;;;10.80;99.90;;;;;;5051367;28;20567;-45
2023/12/21 12:00:43;;;;;;;0.40;0.40;;;10.80;99.90;;;;;;5051471;28;20056;-42
2023/12/21 12:03:10;;;;;;;0.20;0.20;;;10.80;99.90;;;;;;5052724;28;20024;-43
2023/12/21 12:05:38;;;;;;;2.65;0.30;;;10.80;99.90;;;;;;5051580;28;20020;-42
2023/12/21 12:08:04;;;;;;;0.50;0.22;;;10.80;99.90;;;;;;5052083;28;20235;-42
2023/12/21 12:10:29;;;;;;;0.28;0.28;;;10.80;99.90;;;;;;5051646;28;20092;-46
2023/12/21 12:12:55;;;;;;;0.38;0.20;;;10.90;99.90;;;;;;5051619;28;20017;-42
2023/12/21 12:15:21;;;;;;;0.22;0.20;;;10.80;99.90;;;;;;5051747;28;20083;-47
2023/12/21 12:17:46;;;;;;;0.28;0.28;;;10.90;99.90;;;;;;5051971;28;20031;-43
2023/12/21 12:20:12;;;;;;;0.20;0.20;;;10.80;99.90;;;;;;5051649;28;20481;-47
2023/12/21 12:22:38;;;;;;;0.20;0.20;;;10.80;99.90;;;;;;5050983;28;20474;-44
2023/12/21 12:25:07;;;;;;;0.57;0.20;;;10.70;99.90;;;;;;5033604;28;20028;-41
2023/12/21 12:27:33;;;;;;;0.73;0.45;;;10.60;99.90;;;;;;5051282;28;20056;-42
2023/12/21 12:29:59;;;;;;;0.22;0.20;;;10.60;99.90;;;;;;5051760;28;20091;-41
2023/12/21 12:32:26;;;;;;;0.68;0.20;;;10.60;99.90;;;;;;5051412;28;20079;-47
2023/12/21 12:34:51;;;;;;;1.40;0.20;;;10.50;99.90;;;;;;5051890;28;20017;-41
2023/12/21 12:37:20;;;;;;;0.20;0.20;;;10.50;99.90;;;;;;5051465;28;20503;-45
2023/12/21 12:39:49;;;;;;;0.25;0.20;;;10.40;99.90;;;;;;5051954;28;20404;-42
2023/12/21 12:42:16;;;;;;;0.52;0.30;;;10.40;99.90;;;;;;5051228;28;20108;-42
2023/12/21 12:44:42;;;;;;;1.95;0.25;;;10.40;99.90;;;;;;5051654;28;20439;-48
2023/12/21 12:47:10;;;;;;;0.20;0.20;;;10.40;99.90;;;;;;5051816;28;20454;-43
2023/12/21 12:49:36;;;;;;;0.65;0.65;;;10.30;99.90;;;;;;5051899;28;20021;-41